Terminal Aerodrome Forecast
Issued by NWS

Home | Current Version | Previous Version | Text Only | Print | Product List | Glossary On
Versions: 1 2 3 4 5 6 7 8 9 10 11 12 13 14 15 16 17
049
FTUS41 KGYX 202320
TAFPSM
TAF
KPSM 202320Z 2100/2124 27007KT P6SM SKC
     FM210400 27005KT P6SM SCT120 BKN250
     FM211400 30004KT P6SM SCT045 BKN120=

USA.gov is the U.S. government's official web portal to all federal, state and local government web resources and services.